Time;durP1;ratioP1;P1;durP2;ratioP2;P2;SDS_P1;SDS_P2;PMS_P1;PMS_P2;Temp;Humidity;BMP_temperature;BMP_pressure;BME280_temperature;BME280_humidity;BME280_pressure;Samples;Min_cycle;Max_cycle;Signal;HPM_P1;HPM_P2
2021/01/28 00:01:41;;;;;;;65.25;22.65;;;5.30;99.90;;;;;;5103627;27;20037;-77
2021/01/28 00:04:07;;;;;;;70.10;22.63;;;5.40;99.90;;;;;;5090179;27;20038;-76
2021/01/28 00:06:32;;;;;;;47.72;19.15;;;5.30;99.90;;;;;;5071519;27;20043;-77
2021/01/28 00:08:58;;;;;;;38.03;12.68;;;5.30;99.90;;;;;;5092483;27;20019;-77
2021/01/28 00:11:23;;;;;;;58.45;19.13;;;5.30;99.90;;;;;;5101111;27;20046;-77
2021/01/28 00:13:49;;;;;;;67.55;23.23;;;5.30;99.90;;;;;;5104275;28;20039;-76
2021/01/28 00:16:15;;;;;;;72.82;23.83;;;5.30;99.90;;;;;;5090229;28;20410;-77
2021/01/28 00:18:41;;;;;;;49.40;19.80;;;5.30;99.90;;;;;;5090201;27;20490;-77
2021/01/28 00:21:06;;;;;;;70.82;21.00;;;5.40;99.90;;;;;;5099326;27;20080;-77
2021/01/28 00:23:32;;;;;;;72.22;24.63;;;5.30;99.90;;;;;;5088773;28;20084;-77
2021/01/28 00:25:57;;;;;;;62.63;20.40;;;5.40;99.90;;;;;;5105727;27;20084;-77
2021/01/28 00:28:23;;;;;;;75.05;26.13;;;5.30;99.90;;;;;;5104150;28;20359;-77
2021/01/28 00:30:50;;;;;;;62.10;20.75;;;5.30;99.90;;;;;;5089346;28;20020;-77
2021/01/28 00:33:19;;;;;;;60.40;17.67;;;5.30;99.90;;;;;;5105179;28;20027;-77
2021/01/28 00:35:46;;;;;;;53.40;20.58;;;5.30;99.90;;;;;;5090795;28;20031;-76
2021/01/28 00:38:19;;;;;;;46.47;15.50;;;5.30;99.90;;;;;;5073174;28;20027;-77
2021/01/28 00:40:45;;;;;;;42.92;18.58;;;5.30;99.90;;;;;;5105782;28;20485;-76
2021/01/28 00:43:11;;;;;;;42.42;15.52;;;5.30;99.90;;;;;;5088491;28;20042;-76
2021/01/28 00:45:36;;;;;;;71.10;25.15;;;5.40;99.90;;;;;;5079876;28;20032;-76
2021/01/28 00:48:02;;;;;;;63.38;23.45;;;5.30;99.90;;;;;;5088927;28;20036;-76
2021/01/28 00:50:31;;;;;;;47.58;19.83;;;5.40;99.90;;;;;;5070930;28;20478;-76
2021/01/28 00:52:56;;;;;;;34.30;14.65;;;5.30;99.90;;;;;;5083803;28;20035;-77
2021/01/28 00:55:22;;;;;;;65.63;25.08;;;5.30;99.90;;;;;;5087640;28;20072;-76
2021/01/28 00:57:48;;;;;;;40.03;17.95;;;5.30;99.90;;;;;;5105030;28;20028;-75
2021/01/28 01:00:18;;;;;;;47.65;16.88;;;5.40;99.90;;;;;;5105364;28;20036;-76
2021/01/28 01:02:44;;;;;;;64.53;24.45;;;5.30;99.90;;;;;;5067367;28;20042;-76
2021/01/28 01:05:14;;;;;;;60.72;21.00;;;5.30;99.90;;;;;;5038889;27;20031;-76
2021/01/28 01:07:39;;;;;;;55.33;22.50;;;5.30;99.90;;;;;;5085336;28;20115;-75
2021/01/28 01:10:07;;;;;;;57.95;22.23;;;5.40;99.90;;;;;;5099162;28;20110;-76
2021/01/28 01:12:32;;;;;;;50.38;17.40;;;5.40;99.90;;;;;;5100210;28;20084;-76
2021/01/28 01:14:58;;;;;;;39.35;13.40;;;5.40;99.90;;;;;;5082888;28;20031;-76
2021/01/28 01:17:24;;;;;;;63.63;22.02;;;5.30;99.90;;;;;;5086707;28;20028;-76
2021/01/28 01:19:50;;;;;;;81.88;27.25;;;5.40;99.90;;;;;;5074981;28;20621;-77
2021/01/28 01:22:15;;;;;;;66.53;24.02;;;5.40;99.90;;;;;;5091348;28;20023;-77
2021/01/28 01:24:41;;;;;;;63.92;23.52;;;5.30;99.90;;;;;;5073288;28;20039;-76
2021/01/28 01:27:06;;;;;;;62.42;22.48;;;5.30;99.90;;;;;;5090757;28;20028;-76
2021/01/28 01:29:32;;;;;;;58.75;20.73;;;5.40;99.90;;;;;;5104237;28;20066;-77
2021/01/28 01:31:57;;;;;;;47.75;18.75;;;5.40;99.90;;;;;;5106766;28;20030;-76
2021/01/28 01:34:23;;;;;;;62.38;21.90;;;5.30;99.90;;;;;;5106536;27;20031;-76
2021/01/28 01:36:48;;;;;;;62.13;23.48;;;5.30;99.90;;;;;;5093494;27;20047;-76
2021/01/28 01:39:14;;;;;;;25.02;10.70;;;5.40;99.90;;;;;;5108800;27;20034;-76
2021/01/28 01:41:39;;;;;;;63.17;21.88;;;5.40;99.90;;;;;;5091938;27;20484;-76
2021/01/28 01:44:05;;;;;;;55.53;19.58;;;5.40;99.90;;;;;;5091154;27;20030;-75
2021/01/28 01:46:31;;;;;;;57.45;19.90;;;5.40;99.90;;;;;;5092323;27;20509;-76
2021/01/28 01:49:01;;;;;;;54.08;19.75;;;5.30;99.90;;;;;;5076238;27;20030;-77
2021/01/28 01:51:41;;;;;;;63.95;22.52;;;5.30;99.90;;;;;;5089828;27;20474;-76
2021/01/28 01:54:28;;;;;;;51.05;18.38;;;5.40;99.90;;;;;;5074821;27;20031;-76
2021/01/28 01:56:55;;;;;;;55.92;22.60;;;5.40;99.90;;;;;;5093023;27;20562;-75
2021/01/28 01:59:26;;;;;;;42.33;13.38;;;5.30;99.90;;;;;;5071783;27;20070;-76
2021/01/28 02:01:57;;;;;;;51.95;17.98;;;5.40;99.90;;;;;;5107782;27;20039;-77
2021/01/28 02:04:23;;;;;;;63.30;21.63;;;5.40;99.90;;;;;;5106698;27;20032;-75
2021/01/28 02:06:51;;;;;;;47.03;17.70;;;5.30;99.90;;;;;;5108484;27;20028;-76
2021/01/28 02:09:17;;;;;;;53.25;18.75;;;5.40;99.90;;;;;;5108435;27;20510;-75
2021/01/28 02:11:43;;;;;;;36.38;15.07;;;5.40;99.90;;;;;;5078227;27;20031;-75
2021/01/28 02:14:10;;;;;;;48.75;16.02;;;5.40;99.90;;;;;;5107848;27;20039;-75
2021/01/28 02:16:40;;;;;;;58.33;17.73;;;5.40;99.90;;;;;;5107750;27;20027;-77
2021/01/28 02:19:15;;;;;;;59.60;19.73;;;5.40;99.90;;;;;;5103779;27;20364;-77
2021/01/28 02:21:40;;;;;;;54.08;18.40;;;5.40;99.90;;;;;;5074249;27;20515;-76
2021/01/28 02:24:09;;;;;;;48.35;14.75;;;5.40;99.90;;;;;;5107480;27;20042;-76
2021/01/28 02:26:34;;;;;;;56.45;17.20;;;5.30;99.90;;;;;;5107231;27;20069;-75
2021/01/28 02:29:00;;;;;;;50.83;20.17;;;5.30;99.90;;;;;;5108683;27;20177;-76
2021/01/28 02:31:26;;;;;;;54.42;18.80;;;5.40;99.90;;;;;;5096191;27;20035;-77
2021/01/28 02:33:55;;;;;;;55.10;18.67;;;5.40;99.90;;;;;;5089614;27;20035;-75
2021/01/28 02:36:49;;;;;;;57.90;19.73;;;5.40;99.90;;;;;;5094330;27;20514;-76
2021/01/28 02:39:17;;;;;;;51.33;18.50;;;5.40;99.90;;;;;;5104373;27;20130;-77
2021/01/28 02:41:44;;;;;;;53.78;17.73;;;5.40;99.90;;;;;;5090504;27;20080;-76
2021/01/28 02:44:09;;;;;;;57.00;19.83;;;5.40;99.90;;;;;;5104669;27;20038;-76
2021/01/28 02:46:35;;;;;;;54.08;17.98;;;5.30;99.90;;;;;;5108281;27;20023;-76
2021/01/28 02:49:00;;;;;;;55.35;19.45;;;5.30;99.90;;;;;;5091946;27;20045;-76
2021/01/28 02:51:26;;;;;;;59.00;19.63;;;5.40;99.90;;;;;;5102894;27;20054;-74
2021/01/28 02:53:52;;;;;;;53.88;18.70;;;5.30;99.90;;;;;;5090199;27;20146;-75
2021/01/28 02:56:21;;;;;;;57.25;18.85;;;5.30;99.90;;;;;;5089280;27;20446;-74
2021/01/28 02:58:47;;;;;;;51.90;16.10;;;5.30;99.90;;;;;;5106024;27;20077;-75
2021/01/28 03:01:13;;;;;;;47.72;17.13;;;5.30;99.90;;;;;;5104133;27;20050;-75
2021/01/28 03:03:38;;;;;;;49.97;15.02;;;5.30;99.90;;;;;;5086441;27;20482;-75
2021/01/28 03:06:05;;;;;;;56.35;17.70;;;5.30;99.90;;;;;;5089505;27;20110;-75
2021/01/28 03:08:31;;;;;;;50.85;17.75;;;5.30;99.90;;;;;;5084387;27;20210;-74
2021/01/28 03:10:56;;;;;;;54.90;18.13;;;5.30;99.90;;;;;;5104726;27;20228;-75
2021/01/28 03:13:22;;;;;;;46.45;17.55;;;5.30;99.90;;;;;;5092577;27;20028;-74
2021/01/28 03:15:48;;;;;;;47.25;16.35;;;5.40;99.90;;;;;;5107828;27;20101;-75
2021/01/28 03:18:14;;;;;;;49.20;18.05;;;5.40;99.90;;;;;;5074148;27;20031;-75
2021/01/28 03:20:39;;;;;;;41.05;16.15;;;5.30;99.90;;;;;;5123073;27;20140;-75
2021/01/28 03:23:06;;;;;;;50.15;17.63;;;5.40;99.90;;;;;;5094429;27;20027;-75
2021/01/28 03:25:31;;;;;;;41.92;16.55;;;5.40;99.90;;;;;;5095742;27;20031;-75
2021/01/28 03:27:57;;;;;;;47.92;18.15;;;5.40;99.90;;;;;;5106120;27;20045;-75
2021/01/28 03:30:28;;;;;;;55.75;20.58;;;5.30;99.90;;;;;;5072565;27;20030;-75
2021/01/28 03:32:54;;;;;;;52.83;19.73;;;5.30;99.90;;;;;;5105419;27;20031;-74
2021/01/28 03:35:20;;;;;;;56.28;19.88;;;5.30;99.90;;;;;;5087330;27;20063;-75
2021/01/28 03:37:46;;;;;;;47.65;17.52;;;5.30;99.90;;;;;;5105341;27;20494;-76
2021/01/28 03:40:12;;;;;;;50.22;21.25;;;5.30;99.90;;;;;;5105864;27;20547;-75
2021/01/28 03:42:37;;;;;;;45.47;18.10;;;5.40;99.90;;;;;;5076967;27;20038;-75
2021/01/28 03:45:13;;;;;;;49.80;18.55;;;5.40;99.90;;;;;;5075326;27;20474;-78
2021/01/28 03:47:38;;;;;;;61.45;22.08;;;5.30;99.90;;;;;;5101432;27;20027;-74
2021/01/28 03:50:05;;;;;;;53.13;18.80;;;5.30;99.90;;;;;;5122121;27;20020;-75
2021/01/28 03:52:31;;;;;;;61.35;22.10;;;5.30;99.90;;;;;;5098793;27;20032;-75
2021/01/28 03:54:56;;;;;;;58.08;21.58;;;5.40;99.90;;;;;;5087399;27;20031;-75
2021/01/28 03:57:22;;;;;;;45.78;18.85;;;5.40;99.90;;;;;;5088107;27;20443;-75
2021/01/28 03:59:47;;;;;;;45.72;17.55;;;5.40;99.90;;;;;;5103478;27;20032;-75
2021/01/28 04:02:13;;;;;;;43.13;17.20;;;5.40;99.90;;;;;;5087535;27;20114;-74
2021/01/28 04:04:38;;;;;;;49.13;18.45;;;5.30;99.90;;;;;;5106698;27;20019;-75
2021/01/28 04:07:04;;;;;;;50.72;19.38;;;5.30;99.90;;;;;;5089010;28;20055;-76
2021/01/28 04:09:29;;;;;;;44.85;18.08;;;5.30;99.90;;;;;;5081115;27;20039;-75
2021/01/28 04:11:55;;;;;;;49.30;18.85;;;5.30;99.90;;;;;;5086723;27;20472;-75
2021/01/28 04:14:20;;;;;;;51.75;17.90;;;5.40;99.90;;;;;;5081270;28;20528;-74
2021/01/28 04:16:46;;;;;;;42.42;17.60;;;5.30;99.90;;;;;;5088470;27;20031;-75
2021/01/28 04:19:11;;;;;;;42.95;16.65;;;5.30;99.90;;;;;;5090002;27;20036;-74
2021/01/28 04:21:37;;;;;;;43.80;16.00;;;5.30;99.90;;;;;;5072931;27;20035;-75
2021/01/28 04:24:04;;;;;;;43.35;15.57;;;5.30;99.90;;;;;;5091695;27;20031;-74
2021/01/28 04:26:29;;;;;;;41.50;17.48;;;5.30;99.90;;;;;;5096663;27;20039;-74
2021/01/28 04:28:55;;;;;;;44.28;18.95;;;5.30;99.90;;;;;;5090298;28;20033;-74
2021/01/28 04:31:21;;;;;;;39.20;16.05;;;5.30;99.90;;;;;;5072757;28;20035;-75
2021/01/28 04:33:46;;;;;;;40.33;16.48;;;5.30;99.90;;;;;;5088332;28;20039;-76
2021/01/28 04:36:12;;;;;;;53.08;18.42;;;5.30;99.90;;;;;;5103783;28;20084;-75
2021/01/28 04:38:38;;;;;;;41.63;15.80;;;5.30;99.90;;;;;;5081453;28;20413;-77
2021/01/28 04:41:13;;;;;;;38.42;15.77;;;5.30;99.90;;;;;;5080415;27;20110;-75
2021/01/28 04:43:38;;;;;;;38.92;15.80;;;5.30;99.90;;;;;;5086900;28;20053;-75
2021/01/28 04:46:06;;;;;;;43.13;17.48;;;5.30;99.90;;;;;;5099950;28;20035;-75
2021/01/28 04:48:32;;;;;;;37.90;15.80;;;5.30;99.90;;;;;;5086692;28;20035;-75
2021/01/28 04:50:59;;;;;;;35.13;15.07;;;5.30;99.90;;;;;;5086436;28;20059;-75
2021/01/28 04:53:46;;;;;;;33.58;13.75;;;5.30;99.90;;;;;;5088977;28;20031;-75
2021/01/28 04:56:14;;;;;;;34.05;14.77;;;5.30;99.90;;;;;;5089696;27;20050;-75
2021/01/28 04:58:40;;;;;;;33.45;14.38;;;5.30;99.90;;;;;;5097472;28;20034;-75
2021/01/28 05:01:05;;;;;;;36.25;12.30;;;5.20;99.90;;;;;;5086206;27;20035;-76
2021/01/28 05:03:35;;;;;;;28.33;13.90;;;5.20;99.90;;;;;;5094401;28;20036;-75
2021/01/28 05:06:00;;;;;;;31.52;12.45;;;5.20;99.90;;;;;;5105216;28;20542;-76
2021/01/28 05:08:26;;;;;;;33.50;13.30;;;5.20;99.90;;;;;;5095462;27;20019;-76
2021/01/28 05:10:53;;;;;;;30.52;14.43;;;5.20;99.90;;;;;;5092957;27;20585;-75
2021/01/28 05:13:32;;;;;;;32.25;14.90;;;5.20;99.90;;;;;;5091478;27;20031;-75
2021/01/28 05:15:59;;;;;;;34.50;15.07;;;5.20;99.90;;;;;;5101977;27;20027;-75
2021/01/28 05:18:33;;;;;;;31.17;15.27;;;5.20;99.90;;;;;;5086744;27;20035;-75
2021/01/28 05:21:07;;;;;;;27.00;13.27;;;5.10;99.90;;;;;;5091726;27;20111;-75
2021/01/28 05:23:35;;;;;;;30.33;13.80;;;5.10;99.90;;;;;;5088075;27;20023;-75
2021/01/28 05:26:00;;;;;;;26.83;12.90;;;5.20;99.90;;;;;;5108847;27;20077;-75
2021/01/28 05:28:37;;;;;;;29.02;12.15;;;5.10;99.90;;;;;;5087553;27;20386;-75
2021/01/28 05:31:03;;;;;;;24.67;13.13;;;5.20;99.90;;;;;;5081913;27;20505;-75
2021/01/28 05:33:33;;;;;;;30.40;11.98;;;5.20;99.90;;;;;;5077009;27;20035;-75
2021/01/28 05:36:12;;;;;;;24.05;11.52;;;5.10;99.90;;;;;;5108209;27;20625;-77
2021/01/28 05:38:46;;;;;;;25.13;12.32;;;5.10;99.90;;;;;;5091625;27;20483;-75
2021/01/28 05:41:33;;;;;;;20.58;11.88;;;5.10;99.90;;;;;;5087374;27;20034;-77
2021/01/28 05:44:28;;;;;;;21.70;11.43;;;5.10;99.90;;;;;;5110705;27;20042;-76
2021/01/28 05:47:10;;;;;;;26.88;12.82;;;5.10;99.90;;;;;;5088457;27;20032;-76
2021/01/28 05:49:38;;;;;;;22.58;12.07;;;5.00;99.90;;;;;;5110374;27;20054;-76
2021/01/28 05:52:19;;;;;;;24.77;11.50;;;5.10;99.90;;;;;;5077121;27;20024;-76
2021/01/28 05:55:00;;;;;;;23.50;10.98;;;5.10;99.90;;;;;;5087938;27;20035;-76
2021/01/28 05:57:28;;;;;;;27.70;11.82;;;5.00;99.90;;;;;;5081077;27;20114;-77
2021/01/28 06:00:06;;;;;;;21.45;11.52;;;5.00;99.90;;;;;;5102917;27;20031;-76
2021/01/28 06:02:36;;;;;;;20.67;10.57;;;5.00;99.90;;;;;;5108956;27;20035;-75
2021/01/28 06:05:26;;;;;;;21.27;10.73;;;5.10;99.90;;;;;;5092425;27;20038;-76
2021/01/28 06:08:14;;;;;;;19.30;10.50;;;5.00;99.90;;;;;;5101400;27;20058;-75
2021/01/28 06:10:44;;;;;;;19.27;10.23;;;5.00;99.90;;;;;;5111130;27;20775;-76
2021/01/28 06:13:22;;;;;;;22.50;11.07;;;5.00;99.90;;;;;;5107778;27;20051;-75
2021/01/28 06:15:58;;;;;;;16.55;9.27;;;5.00;99.90;;;;;;5106526;27;20034;-77
2021/01/28 06:18:50;;;;;;;15.55;8.48;;;5.00;99.90;;;;;;5091906;27;20062;-76
2021/01/28 06:21:39;;;;;;;18.80;9.20;;;5.10;99.90;;;;;;5107588;27;20028;-77
2021/01/28 06:24:27;;;;;;;19.35;8.40;;;5.00;99.90;;;;;;5104942;27;20497;-77
2021/01/28 06:27:11;;;;;;;15.23;8.38;;;5.10;99.90;;;;;;5075200;27;20023;-77
2021/01/28 06:30:10;;;;;;;16.38;7.70;;;5.10;99.90;;;;;;5105466;27;20426;-77
2021/01/28 06:32:50;;;;;;;19.42;8.05;;;5.00;99.90;;;;;;5108647;27;20065;-77
2021/01/28 06:35:21;;;;;;;13.98;7.13;;;5.00;99.90;;;;;;5108479;27;20035;-77
2021/01/28 06:38:08;;;;;;;12.68;7.55;;;4.90;99.90;;;;;;5125114;27;20026;-77
2021/01/28 06:40:46;;;;;;;;;;;4.90;99.90;;;;;;5106443;27;20359;-77
2021/01/28 06:43:15;;;;;;;16.08;7.18;;;4.90;99.90;;;;;;5108643;27;19919;-77
2021/01/28 06:45:58;;;;;;;11.05;7.10;;;4.90;99.90;;;;;;5108390;27;20570;-77
2021/01/28 06:48:29;;;;;;;10.52;7.00;;;4.90;99.90;;;;;;5078110;27;20031;-75
2021/01/28 06:51:15;;;;;;;11.07;7.30;;;4.90;99.90;;;;;;5088996;27;20027;-75
2021/01/28 06:53:48;;;;;;;;;;;4.90;99.90;;;;;;5091597;27;20031;-76
2021/01/28 06:56:16;;;;;;;10.45;6.32;;;4.90;99.90;;;;;;5090975;27;19919;-75
2021/01/28 06:59:13;;;;;;;11.63;6.43;;;4.90;99.90;;;;;;5103729;27;20110;-76
2021/01/28 07:01:53;;;;;;;12.75;6.15;;;4.90;99.90;;;;;;5070160;27;20089;-76
2021/01/28 07:04:28;;;;;;;13.70;6.60;;;4.80;99.90;;;;;;5109398;27;20047;-76
2021/01/28 07:07:16;;;;;;;11.35;6.82;;;4.80;99.90;;;;;;5108525;27;20031;-76
2021/01/28 07:09:58;;;;;;;10.57;5.70;;;4.80;99.90;;;;;;5091105;27;20034;-76
2021/01/28 07:12:30;;;;;;;11.30;6.88;;;4.80;99.90;;;;;;5124883;27;20027;-76
2021/01/28 07:14:56;;;;;;;12.20;6.60;;;4.80;99.90;;;;;;5102502;27;20038;-75
2021/01/28 07:17:26;;;;;;;12.27;6.70;;;4.80;99.90;;;;;;5104490;27;20041;-76
2021/01/28 07:19:55;;;;;;;12.18;5.68;;;4.70;99.90;;;;;;5106198;27;20031;-75
2021/01/28 07:22:33;;;;;;;10.25;6.10;;;4.80;99.90;;;;;;5084263;27;20035;-76
2021/01/28 07:25:29;;;;;;;9.75;5.90;;;4.70;99.90;;;;;;5100976;27;20027;-75
2021/01/28 07:27:59;;;;;;;8.80;5.30;;;4.70;99.90;;;;;;5106353;27;20035;-76
2021/01/28 07:30:36;;;;;;;9.07;5.68;;;4.70;99.90;;;;;;5083127;27;20482;-76
2021/01/28 07:33:02;;;;;;;12.18;6.35;;;4.70;99.90;;;;;;5099989;27;20038;-76
2021/01/28 07:35:32;;;;;;;10.98;6.43;;;4.70;99.90;;;;;;5081624;27;20023;-76
2021/01/28 07:38:27;;;;;;;8.98;5.82;;;4.60;99.90;;;;;;5089257;27;20016;-75
2021/01/28 07:40:57;;;;;;;14.55;7.38;;;4.70;99.90;;;;;;5124956;27;20073;-75
2021/01/28 07:43:26;;;;;;;9.45;6.15;;;4.60;99.90;;;;;;5086835;27;20097;-75
2021/01/28 07:46:10;;;;;;;12.27;7.93;;;4.60;99.90;;;;;;5083015;27;20028;-76
2021/01/28 07:48:35;;;;;;;12.68;6.80;;;4.60;99.90;;;;;;5078344;27;20042;-76
2021/01/28 07:51:29;;;;;;;13.35;7.18;;;4.60;99.90;;;;;;5074624;27;20027;-77
2021/01/28 07:53:55;;;;;;;17.95;6.72;;;4.60;99.90;;;;;;5069738;27;20509;-74
2021/01/28 07:56:35;;;;;;;10.13;6.00;;;4.50;99.90;;;;;;5056722;27;20032;-76
2021/01/28 07:59:11;;;;;;;12.38;6.82;;;4.60;99.90;;;;;;5113883;27;20043;-75
2021/01/28 08:01:39;;;;;;;9.27;6.05;;;4.60;99.90;;;;;;5075141;27;20065;-76
2021/01/28 08:04:06;;;;;;;10.05;6.40;;;4.60;99.90;;;;;;5088214;27;20822;-75
2021/01/28 08:06:32;;;;;;;9.45;5.57;;;4.50;99.90;;;;;;5080683;27;20055;-76
2021/01/28 08:09:09;;;;;;;8.57;5.32;;;4.50;99.90;;;;;;5101371;27;20446;-75
2021/01/28 08:11:34;;;;;;;9.90;5.72;;;4.50;99.90;;;;;;5087913;27;20031;-76
2021/01/28 08:14:00;;;;;;;10.35;5.25;;;4.50;99.90;;;;;;5073851;27;20516;-75
2021/01/28 08:16:25;;;;;;;7.10;4.72;;;4.50;99.90;;;;;;5077663;28;20031;-76
2021/01/28 08:19:05;;;;;;;8.38;4.97;;;4.50;99.90;;;;;;5074844;27;20096;-75
2021/01/28 08:21:31;;;;;;;8.32;5.22;;;4.50;99.90;;;;;;5088080;27;20039;-75
2021/01/28 08:24:34;;;;;;;9.25;5.07;;;4.50;99.90;;;;;;5105697;27;20506;-76
2021/01/28 08:27:12;;;;;;;8.93;4.78;;;4.50;99.90;;;;;;5079144;28;20042;-76
2021/01/28 08:29:38;;;;;;;8.30;5.07;;;4.50;99.90;;;;;;5083701;28;20035;-75
2021/01/28 08:32:24;;;;;;;8.90;4.93;;;4.50;99.90;;;;;;5106100;27;20030;-75
2021/01/28 08:35:00;;;;;;;6.82;4.80;;;4.50;99.90;;;;;;5086988;28;20606;-75
2021/01/28 08:37:26;;;;;;;11.07;4.70;;;4.50;99.90;;;;;;5102870;28;20061;-75
2021/01/28 08:39:53;;;;;;;7.72;4.60;;;4.50;99.90;;;;;;5106010;28;20742;-75
2021/01/28 08:42:19;;;;;;;8.10;4.38;;;4.50;99.90;;;;;;5075665;28;20055;-75
2021/01/28 08:44:46;;;;;;;8.90;4.25;;;4.50;99.90;;;;;;5108996;27;20342;-77
2021/01/28 08:47:25;;;;;;;5.68;3.50;;;4.50;99.90;;;;;;5111046;27;20446;-75
2021/01/28 08:50:15;;;;;;;4.57;3.13;;;4.50;99.90;;;;;;5073260;27;20038;-77
2021/01/28 08:52:41;;;;;;;9.25;4.20;;;4.50;99.90;;;;;;5099726;27;20027;-77
2021/01/28 08:55:24;;;;;;;11.82;4.13;;;4.50;99.90;;;;;;5094142;27;20437;-75
2021/01/28 08:57:50;;;;;;;6.97;3.92;;;4.40;99.90;;;;;;5091053;27;20036;-75
2021/01/28 09:00:20;;;;;;;6.88;3.45;;;4.50;99.90;;;;;;5109216;27;20130;-76
2021/01/28 09:02:46;;;;;;;10.13;4.68;;;4.40;99.90;;;;;;5109470;27;20035;-76
2021/01/28 09:05:28;;;;;;;7.97;3.97;;;4.40;99.90;;;;;;5090240;27;20096;-76
2021/01/28 09:07:55;;;;;;;5.88;3.85;;;4.40;99.90;;;;;;5075213;27;20077;-75
2021/01/28 09:10:34;;;;;;;5.85;3.30;;;4.50;99.90;;;;;;5086975;27;20468;-76
2021/01/28 09:13:16;;;;;;;13.55;3.92;;;4.40;99.90;;;;;;5109412;27;20038;-76
2021/01/28 09:15:41;;;;;;;7.35;4.20;;;4.40;99.90;;;;;;5119433;27;20028;-75
2021/01/28 09:18:15;;;;;;;8.02;3.35;;;4.40;99.90;;;;;;5079286;27;20019;-75
2021/01/28 09:20:40;;;;;;;7.10;3.70;;;4.40;99.90;;;;;;5089317;27;20034;-76
2021/01/28 09:23:07;;;;;;;6.20;3.22;;;4.40;99.90;;;;;;5077686;27;20026;-76
2021/01/28 09:25:33;;;;;;;5.30;3.22;;;4.50;99.90;;;;;;5087703;27;20062;-76
2021/01/28 09:28:34;;;;;;;11.82;3.53;;;4.50;99.90;;;;;;5069818;27;20075;-76
2021/01/28 09:31:00;;;;;;;6.25;3.20;;;4.40;99.90;;;;;;5060641;28;20563;-76
2021/01/28 09:33:36;;;;;;;8.65;3.40;;;4.50;99.90;;;;;;5077119;27;20023;-76
2021/01/28 09:36:13;;;;;;;7.97;3.35;;;4.50;99.90;;;;;;5090301;27;20027;-76
2021/01/28 09:38:39;;;;;;;7.80;3.67;;;4.50;99.90;;;;;;5084251;27;20023;-76
2021/01/28 09:41:37;;;;;;;6.57;3.45;;;4.50;99.90;;;;;;5091380;27;20081;-77
2021/01/28 09:44:06;;;;;;;6.38;3.45;;;4.40;99.90;;;;;;5108334;27;20053;-77
2021/01/28 09:46:32;;;;;;;8.98;3.63;;;4.40;99.90;;;;;;5089573;27;20474;-76
2021/01/28 09:48:59;;;;;;;6.72;3.35;;;4.40;99.90;;;;;;5091541;27;20027;-76
2021/01/28 09:51:33;;;;;;;5.85;3.60;;;4.50;99.90;;;;;;5094481;27;20072;-76
2021/01/28 09:54:12;;;;;;;7.60;3.05;;;4.50;99.90;;;;;;5102738;27;20111;-76
2021/01/28 09:56:38;;;;;;;8.73;3.53;;;4.50;99.90;;;;;;5122634;27;20027;-76
2021/01/28 09:59:03;;;;;;;6.68;3.85;;;4.50;99.90;;;;;;5105976;27;20080;-75
2021/01/28 10:01:29;;;;;;;5.70;3.25;;;4.50;99.90;;;;;;5102858;27;20491;-76
2021/01/28 10:03:54;;;;;;;4.55;2.88;;;4.50;99.90;;;;;;5077191;27;20027;-76
2021/01/28 10:06:20;;;;;;;4.47;3.20;;;4.50;99.90;;;;;;5103974;27;20572;-76
2021/01/28 10:08:45;;;;;;;6.20;3.10;;;4.50;99.90;;;;;;5089952;27;20087;-77
2021/01/28 10:11:12;;;;;;;7.85;3.08;;;4.50;99.90;;;;;;5090402;27;20502;-75
2021/01/28 10:13:37;;;;;;;5.68;2.35;;;4.60;99.90;;;;;;5100081;27;20047;-76
2021/01/28 10:16:03;;;;;;;6.72;3.10;;;4.60;99.90;;;;;;5088639;27;20019;-76
2021/01/28 10:18:28;;;;;;;4.07;2.60;;;4.60;99.90;;;;;;5092135;27;20030;-76
2021/01/28 10:20:54;;;;;;;5.05;2.55;;;4.60;99.90;;;;;;5068268;27;20043;-77
2021/01/28 10:23:19;;;;;;;5.50;2.80;;;4.60;99.90;;;;;;5068221;27;20043;-77
2021/01/28 10:25:45;;;;;;;6.80;2.35;;;4.60;99.90;;;;;;5112044;27;20095;-76
2021/01/28 10:28:11;;;;;;;7.60;2.88;;;4.60;99.90;;;;;;5093024;27;20428;-76
2021/01/28 10:30:36;;;;;;;3.63;2.40;;;4.60;99.90;;;;;;5113011;27;20034;-76
2021/01/28 10:33:02;;;;;;;4.20;1.75;;;4.60;99.90;;;;;;5089854;27;20109;-76
2021/01/28 10:35:29;;;;;;;3.85;2.30;;;4.60;99.90;;;;;;5072541;27;20975;-76
2021/01/28 10:37:55;;;;;;;4.00;2.17;;;4.60;99.90;;;;;;5090002;27;20452;-75
2021/01/28 10:40:21;;;;;;;5.25;2.03;;;4.60;99.90;;;;;;5090841;27;20035;-76
2021/01/28 10:42:46;;;;;;;3.80;2.20;;;4.70;99.90;;;;;;5106711;27;20031;-76
2021/01/28 10:45:20;;;;;;;5.05;2.50;;;4.70;99.90;;;;;;5091046;27;20084;-75
2021/01/28 10:47:45;;;;;;;2.95;2.08;;;4.70;99.90;;;;;;5085461;27;20072;-76
2021/01/28 10:50:11;;;;;;;5.03;2.17;;;4.70;99.90;;;;;;5094192;27;20027;-76
2021/01/28 10:52:36;;;;;;;2.78;2.13;;;4.80;99.90;;;;;;5098401;27;20061;-75
2021/01/28 10:55:03;;;;;;;6.22;2.30;;;4.80;99.90;;;;;;5076903;27;20463;-75
2021/01/28 10:57:28;;;;;;;4.25;2.45;;;4.80;99.90;;;;;;5090006;27;20031;-76
2021/01/28 10:59:55;;;;;;;5.45;2.70;;;4.80;99.90;;;;;;5079896;27;20039;-75
2021/01/28 11:02:21;;;;;;;3.97;2.33;;;4.80;99.90;;;;;;5105973;27;20032;-75
2021/01/28 11:04:46;;;;;;;6.18;2.17;;;4.80;99.90;;;;;;5103134;27;20038;-77
2021/01/28 11:07:12;;;;;;;3.55;2.60;;;4.90;99.90;;;;;;5075446;27;20035;-77
2021/01/28 11:09:37;;;;;;;5.00;3.10;;;4.80;99.90;;;;;;5103162;27;20023;-75
2021/01/28 11:12:05;;;;;;;4.60;2.33;;;4.90;99.90;;;;;;5108006;27;20394;-76
2021/01/28 11:14:30;;;;;;;5.13;2.95;;;4.90;99.90;;;;;;5076199;27;20122;-75
2021/01/28 11:16:56;;;;;;;4.97;2.80;;;4.90;99.90;;;;;;5089876;27;20106;-76
2021/01/28 11:19:21;;;;;;;4.03;2.40;;;4.90;99.90;;;;;;5091377;27;20035;-75
2021/01/28 11:21:47;;;;;;;3.70;2.30;;;4.90;99.90;;;;;;5106663;27;20509;-75
2021/01/28 11:24:12;;;;;;;6.00;2.70;;;4.90;99.90;;;;;;5087188;27;20043;-76
2021/01/28 11:26:38;;;;;;;4.72;2.35;;;4.90;99.90;;;;;;5090796;27;20417;-75
2021/01/28 11:29:05;;;;;;;13.18;2.50;;;4.90;99.90;;;;;;5089489;27;20059;-77
2021/01/28 11:31:32;;;;;;;7.72;2.83;;;4.90;99.90;;;;;;5087681;27;20400;-78
2021/01/28 11:33:57;;;;;;;10.50;2.97;;;4.90;99.90;;;;;;5087096;27;20036;-75
2021/01/28 11:36:23;;;;;;;6.15;2.42;;;4.90;99.90;;;;;;5076011;27;20042;-80
2021/01/28 11:38:48;;;;;;;11.50;3.50;;;4.90;99.90;;;;;;5107113;27;20027;-75
2021/01/28 11:41:14;;;;;;;10.80;2.97;;;4.90;99.90;;;;;;5077281;27;20037;-76
2021/01/28 11:43:39;;;;;;;5.38;3.05;;;4.90;99.90;;;;;;5083820;27;20023;-75
2021/01/28 11:46:05;;;;;;;6.10;3.00;;;4.90;99.90;;;;;;5100527;27;20449;-75
2021/01/28 11:48:30;;;;;;;5.00;3.67;;;4.90;99.90;;;;;;5075551;27;20091;-75
2021/01/28 11:50:56;;;;;;;4.90;3.40;;;4.90;99.90;;;;;;5088281;27;20085;-76
2021/01/28 11:53:21;;;;;;;5.15;3.40;;;4.90;99.90;;;;;;5107880;27;20034;-75
2021/01/28 11:55:47;;;;;;;9.27;3.88;;;4.90;99.90;;;;;;5106640;27;20097;-77
2021/01/28 11:58:13;;;;;;;11.68;4.05;;;4.90;99.90;;;;;;5086093;27;20042;-76
2021/01/28 12:00:39;;;;;;;7.18;3.90;;;4.90;99.90;;;;;;5099409;27;20016;-75
2021/01/28 12:03:04;;;;;;;5.10;3.33;;;5.00;99.90;;;;;;5090156;27;20393;-76
2021/01/28 12:05:30;;;;;;;6.70;3.58;;;5.00;99.90;;;;;;5096253;28;20019;-75
2021/01/28 12:07:56;;;;;;;9.80;4.95;;;5.00;99.90;;;;;;5075907;27;20035;-76
2021/01/28 12:10:23;;;;;;;7.03;4.22;;;5.00;99.90;;;;;;5091766;27;20026;-75
2021/01/28 12:12:49;;;;;;;8.10;4.95;;;5.00;99.90;;;;;;5071388;27;20080;-76
2021/01/28 12:15:15;;;;;;;12.25;5.13;;;5.10;99.90;;;;;;5065604;27;20035;-77
2021/01/28 12:17:41;;;;;;;8.18;4.97;;;5.00;99.90;;;;;;5087773;27;20023;-76
2021/01/28 12:20:07;;;;;;;13.95;5.53;;;5.10;99.90;;;;;;5079046;28;20039;-76
2021/01/28 12:22:32;;;;;;;13.70;5.65;;;5.10;99.90;;;;;;5068447;27;20035;-76
2021/01/28 12:24:58;;;;;;;9.15;5.00;;;5.10;99.90;;;;;;5105634;27;20035;-76
2021/01/28 12:27:24;;;;;;;13.38;5.93;;;5.10;99.90;;;;;;5087696;28;20497;-77
2021/01/28 12:29:49;;;;;;;8.60;5.70;;;5.20;99.90;;;;;;5088349;28;20494;-78
2021/01/28 12:32:15;;;;;;;10.40;5.93;;;5.20;99.90;;;;;;5087075;28;20027;-77
2021/01/28 12:34:41;;;;;;;8.80;5.80;;;5.20;99.90;;;;;;5093869;28;20406;-78
2021/01/28 12:37:07;;;;;;;9.48;5.47;;;5.30;99.90;;;;;;5093504;27;20027;-77
2021/01/28 12:39:32;;;;;;;12.88;6.15;;;5.30;99.90;;;;;;5080241;28;21075;-76
2021/01/28 12:41:58;;;;;;;8.23;5.05;;;5.30;99.90;;;;;;5108171;28;20088;-76
2021/01/28 12:44:24;;;;;;;10.13;6.00;;;5.40;99.90;;;;;;5088515;28;20027;-77
2021/01/28 12:46:50;;;;;;;8.57;5.35;;;5.40;99.90;;;;;;5103597;28;20035;-76
2021/01/28 12:49:15;;;;;;;8.88;5.28;;;5.40;99.90;;;;;;5057607;28;20065;-77
2021/01/28 12:51:41;;;;;;;7.13;4.43;;;5.50;99.90;;;;;;5086873;28;20039;-77
2021/01/28 12:54:07;;;;;;;12.85;5.05;;;5.50;99.90;;;;;;5089478;28;20031;-77
2021/01/28 12:56:32;;;;;;;8.27;5.13;;;5.60;99.90;;;;;;5090640;28;20446;-77
2021/01/28 12:58:58;;;;;;;11.52;4.95;;;5.60;99.90;;;;;;5125170;28;20023;-76